Time;durP1;ratioP1;P1;durP2;ratioP2;P2;SDS_P1;SDS_P2;PMS_P1;PMS_P2;Temp;Humidity;BMP_temperature;BMP_pressure;BME280_temperature;BME280_humidity;BME280_pressure;Samples;Min_cycle;Max_cycle;Signal;HPM_P1;HPM_P2
2022/01/20 00:04:15;;;;;;;;;;;23.30;24.50;;;;;;5128251;27;19958;-55
2022/01/20 00:09:42;;;;;;;;;;;23.10;24.70;;;;;;5122419;27;19923;-52
2022/01/20 00:23:12;;;;;;;;;;;23.10;24.90;;;;;;5122262;27;19928;-47
2022/01/20 00:28:19;;;;;;;;;;;23.30;24.60;;;;;;5123691;27;20388;-55
2022/01/20 00:30:55;;;;;;;;;;;23.20;24.60;;;;;;5125621;27;19923;-49
2022/01/20 00:38:35;;;;;;;;;;;23.20;24.80;;;;;;5127917;27;19927;-49
2022/01/20 00:41:00;;;;;;;;;;;23.10;24.80;;;;;;5122116;27;19923;-46
2022/01/20 00:43:26;;;;;;;;;;;23.30;24.70;;;;;;5127121;27;19964;-51
2022/01/20 00:45:52;;;;;;;;;;;23.20;24.80;;;;;;5121730;27;19969;-51
2022/01/20 00:48:18;;;;;;;;;;;23.20;24.70;;;;;;5120792;27;20363;-48
2022/01/20 00:50:44;;;;;;;;;;;23.10;24.80;;;;;;5107469;27;19927;-47
2022/01/20 00:53:10;;;;;;;;;;;23.10;24.90;;;;;;5121297;27;20298;-50
2022/01/20 00:55:36;;;;;;;;;;;23.20;24.90;;;;;;5121776;27;20230;-45
2022/01/20 00:58:02;;;;;;;;;;;23.20;24.80;;;;;;5127274;27;19923;-47
2022/01/20 01:00:28;;;;;;;;;;;23.20;24.70;;;;;;5121852;27;19958;-51
2022/01/20 01:02:56;;;;;;;;;;;23.20;24.80;;;;;;5126249;27;19931;-53
2022/01/20 01:05:21;;;;;;;;;;;23.20;24.80;;;;;;5121651;27;19930;-53
2022/01/20 01:07:49;;;;;;;;;;;23.00;24.90;;;;;;5119234;27;19924;-52
2022/01/20 01:10:20;;;;;;;;;;;23.00;25.10;;;;;;5126744;27;20029;-51
2022/01/20 01:15:20;;;;;;;;;;;23.00;25.20;;;;;;5121595;27;19923;-48
2022/01/20 01:20:34;;;;;;;;;;;23.10;25.10;;;;;;5120599;27;20011;-50
2022/01/20 01:22:59;;;;;;;;;;;23.10;25.00;;;;;;5120964;27;19931;-49
2022/01/20 01:25:25;;;;;;;;;;;23.10;25.00;;;;;;5124901;27;19937;-49
2022/01/20 01:27:51;;;;;;;;;;;23.20;25.00;;;;;;5120725;27;19924;-46
2022/01/20 01:30:27;;;;;;;;;;;23.10;25.10;;;;;;5120792;27;20386;-46
2022/01/20 01:32:55;;;;;;;;;;;23.10;25.10;;;;;;5126780;28;19927;-46
2022/01/20 01:35:22;;;;;;;;;;;23.30;25.10;;;;;;5121216;27;19951;-46
2022/01/20 01:40:20;;;;;;;;;;;23.20;25.00;;;;;;5123766;27;19979;-54
2022/01/20 01:42:49;;;;;;;;;;;22.90;25.40;;;;;;5102816;28;20457;-55
2022/01/20 01:45:18;;;;;;;;;;;22.90;25.30;;;;;;5106063;28;19931;-54
2022/01/20 01:47:44;;;;;;;;;;;22.80;25.40;;;;;;5120842;28;19923;-50
2022/01/20 01:50:10;;;;;;;;;;;22.90;25.30;;;;;;5120876;28;19931;-52
2022/01/20 01:52:36;;;;;;;;;;;22.80;25.50;;;;;;5126714;28;19973;-53
2022/01/20 01:55:02;;;;;;;;;;;22.80;25.50;;;;;;5120982;28;19934;-52
2022/01/20 01:57:28;;;;;;;;;;;22.80;25.60;;;;;;5120450;27;19935;-51
2022/01/20 01:59:54;;;;;;;;;;;22.80;25.60;;;;;;5126290;28;19928;-49
2022/01/20 02:02:20;;;;;;;;;;;22.80;25.50;;;;;;5118881;28;19932;-53
2022/01/20 02:04:46;;;;;;;;;;;22.80;25.50;;;;;;5126189;28;19924;-50
2022/01/20 02:18:11;;;;;;;;;;;22.90;25.40;;;;;;5120548;27;19946;-50
2022/01/20 02:20:37;;;;;;;;;;;23.00;25.30;;;;;;5118170;28;20034;-49
2022/01/20 02:23:03;;;;;;;;;;;23.00;25.30;;;;;;5125780;27;19959;-48
2022/01/20 02:25:30;;;;;;;;;;;23.10;25.20;;;;;;5120275;27;19933;-48
2022/01/20 02:27:56;;;;;;;;;;;23.00;25.10;;;;;;5126091;28;19975;-47
2022/01/20 02:30:22;;;;;;;;;;;23.10;25.10;;;;;;5120936;27;19928;-49
2022/01/20 02:32:52;;;;;;;;;;;23.00;25.10;;;;;;5120547;28;19930;-51
2022/01/20 02:35:18;;;;;;;;;;;23.10;25.10;;;;;;5125145;28;20034;-48
2022/01/20 02:37:46;;;;;;;;;;;23.10;25.20;;;;;;5120761;28;19924;-47
2022/01/20 02:45:37;;;;;;;;;;;23.10;25.10;;;;;;5120422;28;19945;-48
2022/01/20 02:48:03;;;;;;;;;;;23.00;25.30;;;;;;5101423;27;19923;-46
2022/01/20 02:50:29;;;;;;;;;;;23.20;25.20;;;;;;5129760;27;19930;-50
2022/01/20 02:52:54;;;;;;;;;;;23.10;25.30;;;;;;5123583;27;19931;-50
2022/01/20 02:55:20;;;;;;;;;;;23.10;25.30;;;;;;5126132;27;19930;-58
2022/01/20 02:57:46;;;;;;;;;;;23.10;25.20;;;;;;5125847;27;20112;-47
2022/01/20 03:00:12;;;;;;;;;;;23.10;25.20;;;;;;5123612;27;20321;-50
2022/01/20 03:02:38;;;;;;;;;;;23.10;25.20;;;;;;5129079;27;19935;-51
2022/01/20 03:05:04;;;;;;;;;;;23.10;25.20;;;;;;5124084;27;19927;-50
2022/01/20 03:07:30;;;;;;;;;;;23.10;25.20;;;;;;5123909;27;19927;-47
2022/01/20 03:09:56;;;;;;;;;;;23.10;25.20;;;;;;5129247;27;20556;-46
2022/01/20 03:12:21;;;;;;;;;;;23.10;25.20;;;;;;5122870;27;19972;-47
2022/01/20 03:14:47;;;;;;;;;;;23.10;25.20;;;;;;5123708;27;19928;-48
2022/01/20 03:17:14;;;;;;;;;;;23.10;25.20;;;;;;5126672;27;20443;-45
2022/01/20 03:19:40;;;;;;;;;;;23.30;25.10;;;;;;5123350;27;19984;-50
2022/01/20 03:22:06;;;;;;;;;;;23.30;25.10;;;;;;5108801;27;19923;-47
2022/01/20 03:24:31;;;;;;;;;;;23.30;25.20;;;;;;5105287;27;19930;-46
2022/01/20 03:26:57;;;;;;;;;;;23.30;25.30;;;;;;5123445;27;19923;-47
2022/01/20 03:29:23;;;;;;;;;;;23.20;25.30;;;;;;5128709;27;20564;-50
2022/01/20 03:31:49;;;;;;;;;;;23.30;25.10;;;;;;5123031;27;20014;-50
2022/01/20 03:34:15;;;;;;;;;;;23.30;25.20;;;;;;5122062;27;19927;-50
2022/01/20 03:36:40;;;;;;;;;;;23.20;25.30;;;;;;5127755;27;20022;-49
2022/01/20 03:39:06;;;;;;;;;;;23.20;25.40;;;;;;5122942;27;19923;-49
2022/01/20 03:41:32;;;;;;;;;;;23.10;25.40;;;;;;5128762;27;19937;-48
2022/01/20 03:43:58;;;;;;;;;;;23.30;25.40;;;;;;5123617;27;20022;-60
2022/01/20 03:46:24;;;;;;;;;;;23.20;25.50;;;;;;5123154;27;19927;-56
2022/01/20 03:48:51;;;;;;;;;;;22.90;25.80;;;;;;5127638;27;20393;-56
2022/01/20 03:51:22;;;;;;;;;;;22.80;25.90;;;;;;5122828;27;19929;-53
2022/01/20 03:53:48;;;;;;;;;;;22.90;25.90;;;;;;5120815;27;19935;-52
2022/01/20 03:56:14;;;;;;;;;;;22.90;25.80;;;;;;5127990;27;19930;-51
2022/01/20 03:58:40;;;;;;;;;;;23.00;25.80;;;;;;5103736;27;19923;-51
2022/01/20 04:01:06;;;;;;;;;;;23.00;25.70;;;;;;5126353;27;19924;-57
2022/01/20 04:03:31;;;;;;;;;;;23.00;25.70;;;;;;5106882;27;20366;-48
2022/01/20 04:05:57;;;;;;;;;;;23.10;25.60;;;;;;5122368;27;19923;-49
2022/01/20 04:08:24;;;;;;;;;;;23.10;25.60;;;;;;5127549;27;19927;-58
2022/01/20 04:10:49;;;;;;;;;;;23.00;25.60;;;;;;5122289;27;19930;-55
2022/01/20 04:13:17;;;;;;;;;;;22.80;25.90;;;;;;5120487;27;19927;-53
2022/01/20 04:15:42;;;;;;;;;;;22.80;26.00;;;;;;5108065;27;19983;-53
2022/01/20 04:18:09;;;;;;;;;;;22.80;26.00;;;;;;5122437;27;20366;-55
2022/01/20 04:20:34;;;;;;;;;;;22.80;26.00;;;;;;5122589;27;19979;-59
2022/01/20 04:23:00;;;;;;;;;;;22.70;26.10;;;;;;5127872;27;19923;-54
2022/01/20 04:25:26;;;;;;;;;;;22.80;25.90;;;;;;5121841;27;19930;-51
2022/01/20 04:27:52;;;;;;;;;;;22.80;25.90;;;;;;5127757;27;19945;-51
2022/01/20 04:30:18;;;;;;;;;;;22.90;25.80;;;;;;5120337;27;19923;-54
2022/01/20 04:32:44;;;;;;;;;;;22.80;25.70;;;;;;5121907;27;19969;-50
2022/01/20 04:35:10;;;;;;;;;;;22.90;25.70;;;;;;5127022;27;19942;-52
2022/01/20 04:37:35;;;;;;;;;;;23.00;25.70;;;;;;5122201;27;19928;-50
2022/01/20 04:40:03;;;;;;;;;;;23.00;25.50;;;;;;5122298;27;19924;-48
2022/01/20 04:42:31;;;;;;;;;;;23.10;25.50;;;;;;5109398;27;19930;-49
2022/01/20 04:45:05;;;;;;;;;;;23.00;25.50;;;;;;5121366;27;19927;-50
2022/01/20 04:48:01;;;;;;;;;;;23.00;25.50;;;;;;5125846;27;19934;-55
2022/01/20 04:58:40;;;;;;;;;;;23.20;25.50;;;;;;5127444;27;20010;-58
2022/01/20 05:01:06;;;;;;;;;;;23.10;25.60;;;;;;5121997;27;19997;-50
2022/01/20 05:03:32;;;;;;;;;;;23.00;25.70;;;;;;5121106;27;19923;-54
2022/01/20 05:05:58;;;;;;;;;;;22.90;25.90;;;;;;5127083;27;19974;-52
2022/01/20 05:08:27;;;;;;;;;;;23.00;25.90;;;;;;5119258;27;19938;-48
2022/01/20 05:10:53;;;;;;;;;;;23.00;25.90;;;;;;5121310;27;20030;-54
2022/01/20 05:13:24;;;;;;;;;;;23.00;25.90;;;;;;5126632;27;19924;-49
2022/01/20 05:15:50;;;;;;;;;;;23.00;25.90;;;;;;5121476;27;20050;-49
2022/01/20 05:18:16;;;;;;;;;;;23.00;25.90;;;;;;5127149;27;20386;-47
2022/01/20 05:20:41;;;;;;;;;;;23.10;25.80;;;;;;5120776;27;19935;-55
2022/01/20 05:23:07;;;;;;;;;;;23.00;25.90;;;;;;5121110;27;20279;-54
2022/01/20 05:25:33;;;;;;;;;;;22.90;26.00;;;;;;5125245;27;19938;-53
2022/01/20 05:27:59;;;;;;;;;;;23.00;26.00;;;;;;5120709;27;19923;-51
2022/01/20 05:30:24;;;;;;;;;;;22.90;26.20;;;;;;5120727;27;20426;-51
2022/01/20 05:32:50;;;;;;;;;;;22.90;26.10;;;;;;5126861;27;19940;-49
2022/01/20 05:35:16;;;;;;;;;;;23.00;26.00;;;;;;5121480;28;20367;-49
2022/01/20 05:37:42;;;;;;;;;;;23.00;26.00;;;;;;5126675;28;19927;-50
2022/01/20 05:40:08;;;;;;;;;;;23.10;25.90;;;;;;5120383;28;19953;-52
2022/01/20 05:42:36;;;;;;;;;;;23.10;25.90;;;;;;5101483;28;20257;-47
2022/01/20 05:45:02;;;;;;;;;;;23.10;25.90;;;;;;5106542;28;19945;-46
2022/01/20 05:47:30;;;;;;;;;;;23.20;25.80;;;;;;5120785;28;19934;-46
2022/01/20 05:49:56;;;;;;;;;;;23.20;25.80;;;;;;5120796;27;20166;-46
2022/01/20 05:52:22;;;;;;;;;;;23.30;25.80;;;;;;5126840;28;19935;-60
2022/01/20 05:54:48;;;;;;;;;;;23.20;25.80;;;;;;5121402;28;19969;-58
2022/01/20 05:57:13;;;;;;;;;;;22.90;26.10;;;;;;5124281;28;19923;-58
2022/01/20 05:59:39;;;;;;;;;;;22.80;26.20;;;;;;5123167;28;19938;-54
2022/01/20 06:02:24;;;;;;;;;;;22.80;26.20;;;;;;5120444;28;19931;-56
2022/01/20 06:04:50;;;;;;;;;;;22.80;26.20;;;;;;5125730;28;19923;-51
2022/01/20 06:07:15;;;;;;;;;;;22.80;26.20;;;;;;5120533;27;19931;-52
2022/01/20 06:09:41;;;;;;;;;;;22.80;26.20;;;;;;5120937;28;20523;-52
2022/01/20 06:12:07;;;;;;;;;;;22.80;26.10;;;;;;5108114;28;20374;-53
2022/01/20 06:14:33;;;;;;;;;;;22.80;26.10;;;;;;5120960;28;19959;-51
2022/01/20 06:16:59;;;;;;;;;;;22.80;26.20;;;;;;5120238;28;19932;-53
2022/01/20 06:19:25;;;;;;;;;;;22.70;26.20;;;;;;5126519;28;20406;-51
2022/01/20 06:21:50;;;;;;;;;;;22.70;26.20;;;;;;5119360;27;20019;-50
2022/01/20 06:24:16;;;;;;;;;;;22.70;26.30;;;;;;5129164;27;19940;-53
2022/01/20 06:26:43;;;;;;;;;;;22.90;26.00;;;;;;5125528;27;19928;-55
2022/01/20 06:29:09;;;;;;;;;;;22.80;26.20;;;;;;5124888;27;20028;-52
2022/01/20 06:31:35;;;;;;;;;;;22.80;26.10;;;;;;5130122;27;20171;-49
2022/01/20 06:34:00;;;;;;;;;;;22.80;26.00;;;;;;5124158;27;20402;-50
2022/01/20 06:36:26;;;;;;;;;;;22.90;26.00;;;;;;5123884;27;19936;-53
2022/01/20 06:38:52;;;;;;;;;;;22.80;26.00;;;;;;5129734;27;19930;-52
2022/01/20 06:41:18;;;;;;;;;;;22.80;26.00;;;;;;5122447;27;20475;-49
2022/01/20 06:43:44;;;;;;;;;;;22.90;25.90;;;;;;5126146;27;19970;-57
2022/01/20 06:46:09;;;;;;;;;;;22.90;25.90;;;;;;5127621;27;19937;-49
2022/01/20 06:48:35;;;;;;;;;;;22.80;25.90;;;;;;5124307;27;19924;-50
2022/01/20 06:51:01;;;;;;;;;;;22.90;25.90;;;;;;5129720;27;20385;-51
2022/01/20 06:53:27;;;;;;;;;;;23.00;25.80;;;;;;5123471;27;20051;-53
2022/01/20 06:55:52;;;;;;;;;;;23.00;25.70;;;;;;5124211;27;20091;-50
2022/01/20 06:58:21;;;;;;;;;;;22.90;25.90;;;;;;5127388;27;19927;-51
2022/01/20 07:00:47;;;;;;;;;;;23.00;25.70;;;;;;5123731;27;19924;-51
2022/01/20 07:03:13;;;;;;;;;;;22.90;25.80;;;;;;5123534;27;20352;-50
2022/01/20 07:05:38;;;;;;;;;;;23.00;25.70;;;;;;5129790;27;19977;-48
2022/01/20 07:08:04;;;;;;;;;;;23.10;25.60;;;;;;5124099;27;19938;-48
2022/01/20 07:10:30;;;;;;;;;;;22.90;25.70;;;;;;5129284;27;19934;-48
2022/01/20 07:12:56;;;;;;;;;;;23.00;25.60;;;;;;5123041;27;19931;-52
2022/01/20 07:15:21;;;;;;;;;;;23.00;25.60;;;;;;5105309;27;19927;-50
2022/01/20 07:17:47;;;;;;;;;;;23.00;25.60;;;;;;5127140;27;20042;-48
2022/01/20 07:20:13;;;;;;;;;;;23.10;25.50;;;;;;5123462;27;19930;-50
2022/01/20 07:22:39;;;;;;;;;;;23.00;25.50;;;;;;5123240;27;19930;-50
2022/01/20 07:25:05;;;;;;;;;;;23.10;25.50;;;;;;5129340;27;19967;-50
2022/01/20 07:27:30;;;;;;;;;;;23.20;25.40;;;;;;5123689;27;20445;-50
2022/01/20 07:29:56;;;;;;;;;;;23.10;25.40;;;;;;5128808;27;19934;-49
2022/01/20 07:32:22;;;;;;;;;;;23.10;25.40;;;;;;5123005;27;19980;-51
2022/01/20 07:34:48;;;;;;;;;;;23.10;25.40;;;;;;5121426;27;20476;-53
2022/01/20 07:37:13;;;;;;;;;;;23.20;25.30;;;;;;5109240;27;19924;-49
2022/01/20 07:39:41;;;;;;;;;;;23.00;25.40;;;;;;5122826;27;19923;-51
2022/01/20 07:42:07;;;;;;;;;;;23.10;25.30;;;;;;5123109;27;19931;-51
2022/01/20 07:44:33;;;;;;;;;;;23.10;25.30;;;;;;5128843;27;19937;-46
2022/01/20 07:46:59;;;;;;;;;;;23.10;25.20;;;;;;5123246;27;19931;-49
2022/01/20 07:49:25;;;;;;;;;;;23.10;25.20;;;;;;5127439;27;19931;-52
2022/01/20 07:51:51;;;;;;;;;;;23.00;25.30;;;;;;5105916;27;19930;-48
2022/01/20 07:54:17;;;;;;;;;;;23.10;25.20;;;;;;5121246;27;20337;-52
2022/01/20 07:56:43;;;;;;;;;;;23.00;25.20;;;;;;5128160;27;19934;-47
2022/01/20 07:59:08;;;;;;;;;;;23.10;25.10;;;;;;5122699;27;19931;-47
2022/01/20 08:01:34;;;;;;;;;;;23.20;25.00;;;;;;5122876;27;19927;-50
2022/01/20 08:04:00;;;;;;;;;;;23.10;25.10;;;;;;5110289;27;20099;-58
2022/01/20 08:06:26;;;;;;;;;;;22.80;25.40;;;;;;5122695;27;20023;-55
2022/01/20 08:08:52;;;;;;;;;;;22.80;25.40;;;;;;5125006;27;20363;-56
2022/01/20 08:11:18;;;;;;;;;;;22.70;25.40;;;;;;5125378;27;19931;-56
2022/01/20 08:13:43;;;;;;;;;;;22.70;25.40;;;;;;5120430;27;19933;-54
2022/01/20 08:16:09;;;;;;;;;;;22.70;25.40;;;;;;5127800;27;20014;-54
2022/01/20 08:18:35;;;;;;;;;;;22.70;25.30;;;;;;5122470;27;19931;-53
2022/01/20 08:21:01;;;;;;;;;;;22.70;25.30;;;;;;5122692;27;20333;-52
2022/01/20 08:23:26;;;;;;;;;;;22.80;25.20;;;;;;5127927;27;19927;-50
2022/01/20 08:25:52;;;;;;;;;;;22.80;25.20;;;;;;5121642;27;19969;-52
2022/01/20 08:28:21;;;;;;;;;;;22.90;25.00;;;;;;5122741;27;19931;-53
2022/01/20 08:30:47;;;;;;;;;;;22.80;25.00;;;;;;5125715;27;19949;-49
2022/01/20 08:33:13;;;;;;;;;;;22.80;25.10;;;;;;5121689;27;19924;-52
2022/01/20 08:35:39;;;;;;;;;;;23.00;24.90;;;;;;5127131;27;20389;-52
2022/01/20 08:38:07;;;;;;;;;;;22.90;25.00;;;;;;5102269;27;19923;-51
2022/01/20 08:40:32;;;;;;;;;;;22.90;24.90;;;;;;5122336;27;20430;-53
2022/01/20 08:42:58;;;;;;;;;;;23.00;24.80;;;;;;5127434;27;19931;-51
2022/01/20 08:45:28;;;;;;;;;;;22.90;24.90;;;;;;5120277;27;20034;-51
2022/01/20 08:47:55;;;;;;;;;;;22.80;25.00;;;;;;5121880;27;20564;-53
2022/01/20 08:50:21;;;;;;;;;;;23.00;24.70;;;;;;5125177;27;20014;-49
2022/01/20 08:52:47;;;;;;;;;;;23.20;24.60;;;;;;5121630;27;19928;-50
2022/01/20 08:55:13;;;;;;;;;;;23.10;24.70;;;;;;5126500;27;19927;-55
2022/01/20 08:57:39;;;;;;;;;;;23.20;24.60;;;;;;5102941;28;19950;-51
2022/01/20 09:00:05;;;;;;;;;;;23.10;24.60;;;;;;5121834;27;19980;-49
2022/01/20 09:02:30;;;;;;;;;;;23.20;24.50;;;;;;5125760;27;19955;-48
2022/01/20 09:04:58;;;;;;;;;;;23.10;24.50;;;;;;5121253;27;20487;-52
2022/01/20 09:07:24;;;;;;;;;;;22.90;24.70;;;;;;5120131;27;20018;-52
2022/01/20 09:09:50;;;;;;;;;;;22.90;24.70;;;;;;5126342;27;19976;-49
2022/01/20 09:15:27;;;;;;;;;;;23.00;24.50;;;;;;5120891;27;19987;-51
2022/01/20 09:17:48;;;;;;;;;;;23.10;24.40;;;;;;5126986;27;19930;-56
2022/01/20 09:20:14;;;;;;;;;;;23.20;24.30;;;;;;5121507;27;20282;-53
2022/01/20 09:22:40;;;;;;;;;;;23.10;24.40;;;;;;5120710;27;19927;-53
2022/01/20 09:25:06;;;;;;;;;;;23.10;24.40;;;;;;5126548;27;19933;-50
2022/01/20 09:27:32;;;;;;;;;;;23.10;24.40;;;;;;5100018;27;19931;-53
2022/01/20 09:30:00;;;;;;;;;;;23.00;24.30;;;;;;5126495;27;19931;-52
2022/01/20 09:32:28;;;;;;;;;;;23.00;24.40;;;;;;5121116;27;19934;-51
2022/01/20 09:34:56;;;;;;;;;;;23.00;24.40;;;;;;5121475;27;20293;-50
2022/01/20 09:37:22;;;;;;;;;;;23.00;24.40;;;;;;5126958;27;19923;-50
2022/01/20 09:39:48;;;;;;;;;;;23.10;24.40;;;;;;5120394;28;19975;-50
2022/01/20 09:42:14;;;;;;;;;;;23.10;24.40;;;;;;5121076;28;20290;-50
2022/01/20 09:44:47;;;;;;;;;;;23.20;24.30;;;;;;5124384;28;19958;-54
2022/01/20 09:47:15;;;;;;;;;;;23.20;24.30;;;;;;5120878;28;20355;-51
2022/01/20 09:49:41;;;;;;;;;;;23.10;24.40;;;;;;5120565;28;19924;-49
2022/01/20 09:52:07;;;;;;;;;;;23.10;24.40;;;;;;5108035;28;19961;-52
2022/01/20 09:54:33;;;;;;;;;;;23.20;24.30;;;;;;5121287;28;19940;-56
2022/01/20 09:56:59;;;;;;;;;;;23.00;24.50;;;;;;5127048;27;20286;-52
2022/01/20 09:59:25;;;;;;;;;;;23.00;24.60;;;;;;5124336;27;19930;-52
2022/01/20 10:01:56;;;;;;;;;;;22.90;24.50;;;;;;5125066;27;19937;-52
2022/01/20 10:04:29;;;;;;;;;;;23.00;24.50;;;;;;5110111;27;19927;-55
2022/01/20 10:06:56;;;;;;;;;;;23.00;24.50;;;;;;5124644;27;20373;-55
2022/01/20 10:09:29;;;;;;;;;;;23.10;24.40;;;;;;5124909;27;19974;-55
2022/01/20 10:11:55;;;;;;;;;;;23.10;24.40;;;;;;5130649;27;20383;-58
2022/01/20 10:14:20;;;;;;;;;;;23.00;24.50;;;;;;5125112;27;19923;-55
2022/01/20 10:16:46;;;;;;;;;;;23.00;24.40;;;;;;5104917;27;20295;-52
2022/01/20 10:19:20;;;;;;;;;;;23.00;24.40;;;;;;5130248;27;19930;-52
2022/01/20 10:21:46;;;;;;;;;;;23.10;24.30;;;;;;5104242;27;19924;-51
2022/01/20 10:24:12;;;;;;;;;;;23.20;24.20;;;;;;5129976;27;20428;-56
2022/01/20 10:26:39;;;;;;;;;;;23.00;24.30;;;;;;5124109;27;19939;-55
2022/01/20 10:29:05;;;;;;;;;;;23.00;24.30;;;;;;5124620;27;20378;-52
2022/01/20 10:31:32;;;;;;;;;;;22.90;24.40;;;;;;5130122;27;19980;-51
2022/01/20 10:33:58;;;;;;;;;;;23.00;24.30;;;;;;5124447;27;19934;-52
2022/01/20 10:36:24;;;;;;;;;;;23.00;24.30;;;;;;5123775;27;19931;-55
2022/01/20 10:38:50;;;;;;;;;;;22.90;24.40;;;;;;5129819;27;19934;-58
2022/01/20 10:41:26;;;;;;;;;;;22.80;24.40;;;;;;5121991;27;19932;-54
2022/01/20 10:43:59;;;;;;;;;;;22.80;24.40;;;;;;5123981;27;20381;-53
2022/01/20 10:46:24;;;;;;;;;;;22.90;24.30;;;;;;5129632;27;19931;-52
2022/01/20 10:48:57;;;;;;;;;;;23.00;24.20;;;;;;5124435;27;20326;-54
2022/01/20 10:51:23;;;;;;;;;;;22.90;24.20;;;;;;5128711;27;20028;-58
2022/01/20 10:54:01;;;;;;;;;;;22.90;24.10;;;;;;5124684;27;20018;-54
2022/01/20 10:56:27;;;;;;;;;;;22.90;24.10;;;;;;5123792;27;20321;-52
2022/01/20 10:58:53;;;;;;;;;;;23.00;24.10;;;;;;5126893;27;21017;-54
2022/01/20 11:01:19;;;;;;;;;;;23.00;24.10;;;;;;5123542;27;19928;-53
2022/01/20 11:03:45;;;;;;;;;;;23.20;23.90;;;;;;5105120;27;19972;-57
2022/01/20 11:06:10;;;;;;;;;;;23.20;23.90;;;;;;5110422;27;19924;-53
2022/01/20 11:08:39;;;;;;;;;;;23.00;24.10;;;;;;5122965;27;19958;-51
2022/01/20 11:11:05;;;;;;;;;;;23.00;24.10;;;;;;5123941;27;20333;-54
2022/01/20 11:13:30;;;;;;;;;;;23.10;24.00;;;;;;5128524;27;19923;-52
2022/01/20 11:15:56;;;;;;;;;;;23.10;24.00;;;;;;5123067;27;19924;-51
2022/01/20 11:18:28;;;;;;;;;;;23.10;24.00;;;;;;5127192;27;19972;-62
2022/01/20 11:20:55;;;;;;;;;;;23.00;24.10;;;;;;5124251;27;19927;-55
2022/01/20 11:23:21;;;;;;;;;;;22.80;24.30;;;;;;5123951;27;19927;-56
2022/01/20 11:25:47;;;;;;;;;;;22.90;24.30;;;;;;5129408;27;19934;-53
2022/01/20 11:28:22;;;;;;;;;;;23.00;24.30;;;;;;5123639;27;19971;-54
2022/01/20 11:31:05;;;;;;;;;;;22.90;24.20;;;;;;5122729;27;20382;-54
2022/01/20 11:33:41;;;;;;;;;;;23.00;24.10;;;;;;5129055;27;20422;-52
2022/01/20 11:36:09;;;;;;;;;;;22.90;24.30;;;;;;5121251;27;20247;-54
2022/01/20 11:38:38;;;;;;;;;;;22.90;24.30;;;;;;5123262;27;20394;-48
2022/01/20 11:41:04;;;;;;;;;;;22.90;24.30;;;;;;5128393;27;19933;-51
2022/01/20 11:43:40;;;;;;;;;;;22.90;24.30;;;;;;5123533;27;20464;-50
2022/01/20 11:46:11;;;;;;;;;;;23.00;24.10;;;;;;5123383;27;20330;-56
2022/01/20 11:48:48;;;;;;;;;;;23.00;24.10;;;;;;5128303;27;20346;-56
2022/01/20 11:51:14;;;;;;;;;;;23.00;24.10;;;;;;5123158;27;19929;-53
2022/01/20 11:53:42;;;;;;;;;;;22.90;24.10;;;;;;5121084;27;20395;-50
2022/01/20 11:56:09;;;;;;;;;;;23.00;24.10;;;;;;5128095;27;19933;-52
2022/01/20 11:58:35;;;;;;;;;;;23.10;24.00;;;;;;5122494;27;19928;-52
2022/01/20 12:01:01;;;;;;;;;;;23.20;23.80;;;;;;5128470;27;20026;-54
2022/01/20 12:03:27;;;;;;;;;;;23.20;23.70;;;;;;5123708;27;20013;-57
2022/01/20 12:06:00;;;;;;;;;;;22.90;24.00;;;;;;5123017;27;19934;-53
2022/01/20 12:08:26;;;;;;;;;;;22.80;24.00;;;;;;5127413;27;19934;-52
2022/01/20 12:11:07;;;;;;;;;;;23.00;23.90;;;;;;5104674;27;19923;-56
2022/01/20 12:13:33;;;;;;;;;;;23.10;23.80;;;;;;5120443;27;20316;-53
2022/01/20 12:16:00;;;;;;;;;;;23.10;23.70;;;;;;5127516;27;19972;-51
2022/01/20 12:18:26;;;;;;;;;;;23.20;23.60;;;;;;5122527;27;19924;-56
2022/01/20 12:20:52;;;;;;;;;;;23.10;23.60;;;;;;5122397;27;20310;-54
2022/01/20 12:23:19;;;;;;;;;;;23.00;23.70;;;;;;5128243;27;19923;-55
2022/01/20 12:25:45;;;;;;;;;;;23.00;23.60;;;;;;5121810;27;20019;-60
2022/01/20 12:28:12;;;;;;;;;;;23.00;23.60;;;;;;5125911;27;20385;-56
2022/01/20 12:30:40;;;;;;;;;;;23.00;23.70;;;;;;5122813;27;19924;-52
2022/01/20 12:33:08;;;;;;;;;;;22.90;23.80;;;;;;5122043;27;19975;-53
2022/01/20 12:35:36;;;;;;;;;;;22.80;23.90;;;;;;5127560;27;20021;-53
2022/01/20 12:38:12;;;;;;;;;;;22.80;24.00;;;;;;5122316;27;20380;-51
2022/01/20 12:40:37;;;;;;;;;;;22.60;24.20;;;;;;5122377;27;20382;-51
2022/01/20 12:43:03;;;;;;;;;;;22.70;24.30;;;;;;5127600;27;19923;-53
2022/01/20 12:46:02;;;;;;;;;;;22.70;24.40;;;;;;5121379;27;19923;-51
2022/01/20 12:48:21;;;;;;;;;;;22.70;24.50;;;;;;5115691;27;19938;-51
2022/01/20 12:51:01;;;;;;;;;;;22.70;24.70;;;;;;5125672;27;20294;-52
2022/01/20 12:53:31;;;;;;;;;;;22.70;24.60;;;;;;5117600;27;19929;-52
2022/01/20 12:55:57;;;;;;;;;;;22.70;24.70;;;;;;5121835;27;19976;-52
2022/01/20 12:58:22;;;;;;;;;;;22.70;24.80;;;;;;5127559;27;19927;-49
2022/01/20 13:00:58;;;;;;;;;;;22.80;24.70;;;;;;5121897;27;19930;-51
2022/01/20 13:03:36;;;;;;;;;;;22.80;24.70;;;;;;5120902;27;19935;-49
2022/01/20 13:06:03;;;;;;;;;;;22.80;24.60;;;;;;5107481;27;20314;-48
2022/01/20 13:08:32;;;;;;;;;;;22.90;24.60;;;;;;5119349;27;19927;-52
2022/01/20 13:11:19;;;;;;;;;;;22.90;24.50;;;;;;5121433;27;19927;-51
2022/01/20 13:13:51;;;;;;;;;;;23.00;24.40;;;;;;5126748;27;19981;-51
2022/01/20 13:16:17;;;;;;;;;;;22.90;24.40;;;;;;5121698;27;19948;-50
2022/01/20 13:18:55;;;;;;;;;;;22.90;24.40;;;;;;5121645;27;20275;-53
2022/01/20 13:21:26;;;;;;;;;;;22.90;24.30;;;;;;5126209;27;19927;-51
2022/01/20 13:23:55;;;;;;;;;;;22.80;24.40;;;;;;5104005;27;20010;-48
2022/01/20 13:26:21;;;;;;;;;;;23.00;24.20;;;;;;5119714;27;19923;-56
2022/01/20 13:28:57;;;;;;;;;;;23.00;24.20;;;;;;5126046;27;19938;-49
2022/01/20 13:31:22;;;;;;;;;;;22.90;24.40;;;;;;5120644;27;20031;-50
2022/01/20 13:33:49;;;;;;;;;;;22.90;24.40;;;;;;5126917;27;19923;-53
2022/01/20 13:36:14;;;;;;;;;;;23.00;24.30;;;;;;5121294;27;19938;-49
2022/01/20 13:38:46;;;;;;;;;;;23.00;24.30;;;;;;5121141;27;19976;-49
2022/01/20 13:41:13;;;;;;;;;;;23.00;24.40;;;;;;5125968;28;20135;-50
2022/01/20 13:46:29;;;;;;;;;;;22.90;24.50;;;;;;5120260;28;19930;-50
2022/01/20 13:48:55;;;;;;;;;;;23.00;24.40;;;;;;5126029;28;20302;-52
2022/01/20 13:51:25;;;;;;;;;;;22.90;24.40;;;;;;5101150;28;20061;-51
2022/01/20 13:53:53;;;;;;;;;;;22.90;24.40;;;;;;5121248;28;19930;-48
2022/01/20 13:56:19;;;;;;;;;;;23.00;24.40;;;;;;5126587;28;20025;-49
2022/01/20 13:58:45;;;;;;;;;;;23.00;24.30;;;;;;5120117;28;19927;-52
2022/01/20 14:01:12;;;;;;;;;;;22.90;24.40;;;;;;5121907;28;19933;-56
2022/01/20 14:03:41;;;;;;;;;;;23.00;24.40;;;;;;5123850;28;19924;-51
2022/01/20 14:06:06;;;;;;;;;;;23.00;24.40;;;;;;5120596;28;19930;-46
2022/01/20 14:08:36;;;;;;;;;;;23.00;24.40;;;;;;5125904;28;19924;-48
2022/01/20 14:11:02;;;;;;;;;;;23.10;24.30;;;;;;5120938;28;20392;-48
2022/01/20 14:13:28;;;;;;;;;;;23.00;24.40;;;;;;5120747;28;19927;-48
2022/01/20 14:15:55;;;;;;;;;;;23.00;24.40;;;;;;5126012;28;19927;-52
2022/01/20 14:18:22;;;;;;;;;;;23.00;24.50;;;;;;5120306;28;19931;-50
2022/01/20 14:20:48;;;;;;;;;;;23.10;24.30;;;;;;5119409;28;20653;-49
2022/01/20 14:23:14;;;;;;;;;;;23.10;24.40;;;;;;5125410;28;20025;-46
2022/01/20 14:25:46;;;;;;;;;;;23.20;24.30;;;;;;5102176;28;19971;-46
2022/01/20 14:28:11;;;;;;;;;;;23.10;24.30;;;;;;5123934;28;20022;-53
2022/01/20 14:30:38;;;;;;;;;;;23.20;24.20;;;;;;5123637;28;19927;-54
2022/01/20 14:33:04;;;;;;;;;;;23.30;24.20;;;;;;5120765;28;19954;-58
2022/01/20 14:35:31;;;;;;;;;;;22.90;24.50;;;;;;5125370;28;20307;-52
2022/01/20 14:37:58;;;;;;;;;;;22.90;24.60;;;;;;5120685;28;20021;-52
2022/01/20 14:40:24;;;;;;;;;;;22.80;24.60;;;;;;5100036;28;20374;-50
2022/01/20 14:42:50;;;;;;;;;;;22.80;24.60;;;;;;5126040;27;19923;-52
2022/01/20 14:45:16;;;;;;;;;;;22.90;24.50;;;;;;5123895;27;19924;-54
2022/01/20 14:47:42;;;;;;;;;;;22.80;24.60;;;;;;5105967;27;19930;-55
2022/01/20 14:50:09;;;;;;;;;;;22.80;24.50;;;;;;5129750;27;20017;-54
2022/01/20 14:52:35;;;;;;;;;;;22.70;24.70;;;;;;5123677;27;19952;-53
2022/01/20 14:55:01;;;;;;;;;;;22.80;24.60;;;;;;5129016;27;20014;-53
2022/01/20 14:57:27;;;;;;;;;;;22.80;24.70;;;;;;5123520;27;20316;-56
2022/01/20 14:59:52;;;;;;;;;;;22.80;24.60;;;;;;5122453;27;19927;-51
2022/01/20 15:02:18;;;;;;;;;;;22.70;24.70;;;;;;5129017;27;19967;-51
2022/01/20 15:04:44;;;;;;;;;;;22.80;24.60;;;;;;5124047;27;19938;-53
2022/01/20 15:07:10;;;;;;;;;;;22.70;24.70;;;;;;5124282;27;19984;-51
2022/01/20 15:09:36;;;;;;;;;;;22.70;24.60;;;;;;5129451;27;19923;-52
2022/01/20 15:12:02;;;;;;;;;;;22.80;24.50;;;;;;5123002;27;19976;-49
2022/01/20 15:14:28;;;;;;;;;;;22.80;24.50;;;;;;5129082;27;20402;-51
2022/01/20 15:16:54;;;;;;;;;;;22.80;24.40;;;;;;5121096;27;19931;-50
2022/01/20 15:19:20;;;;;;;;;;;22.80;24.40;;;;;;5123317;27;19931;-52